Time;durP1;ratioP1;P1;durP2;ratioP2;P2;SDS_P1;SDS_P2;PMS_P1;PMS_P2;Temp;Humidity;BMP_temperature;BMP_pressure;BME280_temperature;BME280_humidity;BME280_pressure;Samples;Min_cycle;Max_cycle;Signal;HPM_P1;HPM_P2
2022/01/22 05:02:15;;;;;;;30.20;14.20;;;6.00;99.90;;;;;;5124930;23;20238;-68
2022/01/22 05:04:41;;;;;;;39.40;15.27;;;6.10;99.90;;;;;;4976331;28;20228;-68
2022/01/22 05:07:09;;;;;;;39.08;15.27;;;6.10;99.90;;;;;;4968716;28;20666;-70
2022/01/22 05:09:36;;;;;;;46.28;14.25;;;6.10;99.90;;;;;;4960719;28;20259;-70
2022/01/22 05:12:04;;;;;;;36.30;15.00;;;6.10;99.90;;;;;;4954081;28;20229;-70
2022/01/22 05:14:31;;;;;;;43.20;14.85;;;6.10;99.90;;;;;;4947559;28;20222;-70
2022/01/22 05:17:00;;;;;;;39.45;15.10;;;6.10;99.90;;;;;;4939594;29;20277;-70
2022/01/22 05:19:33;;;;;;;34.25;14.13;;;6.10;99.90;;;;;;4939366;29;20221;-70
2022/01/22 05:22:09;;;;;;;37.28;16.23;;;6.10;99.90;;;;;;4950582;29;20228;-70
2022/01/22 05:24:40;;;;;;;40.88;14.98;;;6.10;99.90;;;;;;4939582;29;20209;-70
2022/01/22 05:27:32;;;;;;;37.22;14.90;;;6.10;99.90;;;;;;4939602;29;20272;-70
2022/01/22 05:30:08;;;;;;;43.63;15.25;;;6.10;99.90;;;;;;4938418;29;20678;-70
2022/01/22 05:32:49;;;;;;;43.90;13.27;;;6.20;99.90;;;;;;4941218;29;20212;-70
2022/01/22 05:38:01;;;;;;;40.75;13.50;;;6.10;99.90;;;;;;4940852;29;20699;-70
2022/01/22 05:40:29;;;;;;;44.53;15.52;;;6.10;99.90;;;;;;4940723;29;20352;-70
2022/01/22 05:42:56;;;;;;;42.65;13.65;;;6.20;99.90;;;;;;4944820;29;20293;-69
2022/01/22 05:45:23;;;;;;;34.92;14.07;;;6.10;99.90;;;;;;4938036;29;20209;-69
2022/01/22 05:47:50;;;;;;;48.70;13.88;;;6.20;99.90;;;;;;4954884;28;20217;-69
2022/01/22 05:50:29;;;;;;;41.25;13.25;;;6.20;99.90;;;;;;4954448;28;20205;-69
2022/01/22 05:52:59;;;;;;;41.83;16.15;;;6.20;99.90;;;;;;4947509;28;20224;-70
2022/01/22 06:00:54;;;;;;;34.38;13.23;;;6.20;99.90;;;;;;4933959;29;20237;-71
2022/01/22 06:03:20;;;;;;;33.28;12.65;;;6.20;99.90;;;;;;4943178;29;20209;-69
2022/01/22 06:05:48;;;;;;;39.08;14.70;;;6.20;99.90;;;;;;4935160;29;20359;-70
2022/01/22 06:08:17;;;;;;;33.92;14.00;;;6.20;99.90;;;;;;4937915;28;20596;-69
2022/01/22 06:10:46;;;;;;;37.83;14.32;;;6.20;99.90;;;;;;4934902;29;20230;-70
2022/01/22 06:13:16;;;;;;;36.65;13.95;;;6.20;99.90;;;;;;4934303;29;20244;-69
2022/01/22 06:15:43;;;;;;;31.95;12.93;;;6.20;99.90;;;;;;4935357;29;20210;-70
2022/01/22 06:18:10;;;;;;;31.20;13.57;;;6.10;99.90;;;;;;4938800;29;20261;-70
2022/01/22 06:20:37;;;;;;;41.25;13.30;;;6.20;99.90;;;;;;4948092;28;20237;-70
2022/01/22 06:23:07;;;;;;;37.22;14.30;;;6.20;99.90;;;;;;4952527;28;20201;-69
2022/01/22 06:25:34;;;;;;;34.95;13.52;;;6.20;99.90;;;;;;4934968;29;20210;-69
2022/01/22 06:28:01;;;;;;;29.73;13.23;;;6.20;99.90;;;;;;4935545;29;20217;-69
2022/01/22 06:30:28;;;;;;;34.38;13.35;;;6.20;99.90;;;;;;4953109;28;20220;-70
2022/01/22 06:32:54;;;;;;;32.00;13.35;;;6.20;99.90;;;;;;4934781;28;20285;-70
2022/01/22 06:35:21;;;;;;;36.10;12.50;;;6.20;99.90;;;;;;4953185;29;20213;-69
2022/01/22 06:37:48;;;;;;;26.70;12.50;;;6.20;99.90;;;;;;4953906;28;20213;-70
2022/01/22 06:43:00;;;;;;;27.98;12.45;;;6.20;99.90;;;;;;4934095;29;20316;-71
2022/01/22 06:45:27;;;;;;;41.20;14.38;;;6.10;99.90;;;;;;4948707;29;20205;-69
2022/01/22 06:47:54;;;;;;;41.10;15.02;;;6.20;99.90;;;;;;4953696;28;20260;-70
2022/01/22 06:50:21;;;;;;;31.48;13.13;;;6.10;99.90;;;;;;4937479;28;20682;-69
2022/01/22 06:52:54;;;;;;;29.95;13.07;;;6.20;99.90;;;;;;4934104;29;20604;-70
2022/01/22 06:55:30;;;;;;;39.85;14.82;;;6.20;99.90;;;;;;4950497;29;20588;-70
2022/01/22 06:57:57;;;;;;;34.38;14.90;;;6.20;99.90;;;;;;4953257;28;20244;-70
2022/01/22 07:00:24;;;;;;;35.90;12.57;;;6.20;99.90;;;;;;4947752;28;20666;-69
2022/01/22 07:02:51;;;;;;;41.25;15.23;;;6.20;99.90;;;;;;4934098;29;20209;-70
2022/01/22 07:05:17;;;;;;;39.72;14.95;;;6.20;99.90;;;;;;4934980;29;20209;-70
2022/01/22 07:07:44;;;;;;;37.10;13.40;;;6.20;99.90;;;;;;4933956;29;20218;-70
2022/01/22 07:10:11;;;;;;;38.95;14.02;;;6.20;99.90;;;;;;4947446;28;20216;-70
2022/01/22 07:12:40;;;;;;;34.33;13.55;;;6.20;99.90;;;;;;4952977;28;20217;-70
2022/01/22 07:15:07;;;;;;;35.63;12.63;;;6.20;99.90;;;;;;4938834;28;20225;-69
2022/01/22 07:17:36;;;;;;;39.25;13.65;;;6.20;99.90;;;;;;4952998;28;20209;-69
2022/01/22 07:20:05;;;;;;;28.98;12.40;;;6.20;99.90;;;;;;4952721;28;20212;-69
2022/01/22 07:22:37;;;;;;;30.27;11.30;;;6.20;99.90;;;;;;4932117;29;20750;-69
2022/01/22 07:25:05;;;;;;;29.75;11.52;;;6.20;99.90;;;;;;4933837;29;20202;-68
2022/01/22 07:27:32;;;;;;;34.63;12.77;;;6.20;99.90;;;;;;4933387;29;20296;-68
2022/01/22 07:30:00;;;;;;;28.77;11.40;;;6.20;99.90;;;;;;4933173;29;20209;-68
2022/01/22 07:32:31;;;;;;;24.65;10.60;;;6.20;99.90;;;;;;4933435;29;20631;-68
2022/01/22 07:34:58;;;;;;;29.95;11.18;;;6.20;99.90;;;;;;4941965;29;20224;-68
2022/01/22 07:37:25;;;;;;;29.13;10.98;;;6.20;99.90;;;;;;4949373;28;20940;-68
2022/01/22 07:39:52;;;;;;;25.67;11.20;;;6.20;99.90;;;;;;4934544;29;20559;-68
2022/01/22 07:42:19;;;;;;;29.02;10.45;;;6.30;99.90;;;;;;4933072;29;20249;-68
2022/01/22 07:44:45;;;;;;;28.30;12.32;;;6.30;99.90;;;;;;4944275;29;20225;-68
2022/01/22 07:47:14;;;;;;;31.25;10.80;;;6.20;99.90;;;;;;4952324;28;20678;-69
2022/01/22 07:49:41;;;;;;;26.83;11.73;;;6.20;99.90;;;;;;4950598;28;20209;-69
2022/01/22 07:52:08;;;;;;;28.85;10.20;;;6.20;99.90;;;;;;4952237;28;20268;-69
2022/01/22 07:54:35;;;;;;;25.85;10.18;;;6.30;99.90;;;;;;4948864;28;20312;-70
2022/01/22 07:57:03;;;;;;;25.63;10.68;;;6.30;99.90;;;;;;4951966;28;20263;-69
2022/01/22 07:59:30;;;;;;;27.58;10.50;;;6.30;99.90;;;;;;4947096;28;20690;-69
2022/01/22 08:01:57;;;;;;;32.00;11.88;;;6.30;99.90;;;;;;4933063;29;20537;-70
2022/01/22 08:04:26;;;;;;;29.13;11.75;;;6.40;99.90;;;;;;4931742;29;20202;-70
2022/01/22 08:06:54;;;;;;;31.42;10.40;;;6.40;99.90;;;;;;4933472;29;20261;-70
2022/01/22 08:09:20;;;;;;;25.15;11.77;;;6.30;99.90;;;;;;4933569;29;20277;-70
2022/01/22 08:11:48;;;;;;;33.03;12.60;;;6.30;99.90;;;;;;4937546;28;20230;-70
2022/01/22 08:14:15;;;;;;;32.30;11.57;;;6.30;99.90;;;;;;4933210;29;20225;-68
2022/01/22 08:16:42;;;;;;;27.02;12.60;;;6.30;99.90;;;;;;4933086;29;20257;-69
2022/01/22 08:19:08;;;;;;;38.85;11.85;;;6.30;99.90;;;;;;4933388;29;20206;-69
2022/01/22 08:21:36;;;;;;;25.27;10.50;;;6.30;99.90;;;;;;4933072;29;20234;-69
2022/01/22 08:24:03;;;;;;;28.77;10.90;;;6.30;99.90;;;;;;4932978;29;20210;-69
2022/01/22 08:26:35;;;;;;;23.80;9.15;;;6.30;99.90;;;;;;4944497;29;20212;-69
2022/01/22 08:29:03;;;;;;;26.70;10.32;;;6.30;99.90;;;;;;4951960;28;20701;-69
2022/01/22 08:31:46;;;;;;;24.73;9.65;;;6.30;99.90;;;;;;4947421;28;20237;-71
2022/01/22 08:36:58;;;;;;;20.50;8.35;;;6.40;99.90;;;;;;4936782;29;20705;-69
2022/01/22 08:39:26;;;;;;;14.70;7.40;;;6.40;99.90;;;;;;4935239;29;20213;-69
2022/01/22 08:41:53;;;;;;;16.15;8.35;;;6.40;99.90;;;;;;4935244;29;20286;-68
2022/01/22 08:44:20;;;;;;;16.20;8.18;;;6.30;99.90;;;;;;4936902;29;20210;-69
2022/01/22 08:46:46;;;;;;;15.23;7.30;;;6.40;99.90;;;;;;4936980;29;20461;-68
2022/01/22 08:49:14;;;;;;;13.35;6.95;;;6.40;99.90;;;;;;4936670;29;20268;-69
2022/01/22 08:51:41;;;;;;;13.88;7.05;;;6.40;99.90;;;;;;4936395;29;20234;-69
2022/01/22 08:54:11;;;;;;;8.93;5.90;;;6.40;99.90;;;;;;4936617;29;20252;-69
2022/01/22 08:56:39;;;;;;;16.05;7.72;;;6.40;99.90;;;;;;4936399;29;20300;-69
2022/01/22 08:59:06;;;;;;;11.48;6.38;;;6.40;99.90;;;;;;4936176;29;20248;-69
2022/01/22 09:01:33;;;;;;;11.43;6.78;;;6.40;99.90;;;;;;4951022;28;20693;-69
2022/01/22 09:04:00;;;;;;;17.50;6.93;;;6.40;99.90;;;;;;4955195;28;20213;-69
2022/01/22 09:06:28;;;;;;;12.48;6.05;;;6.50;99.90;;;;;;4954977;28;20206;-69
2022/01/22 09:09:04;;;;;;;16.35;7.22;;;6.50;99.90;;;;;;4942736;28;20285;-69
2022/01/22 09:11:32;;;;;;;17.02;7.90;;;6.50;99.90;;;;;;4936009;29;20320;-69
2022/01/22 09:13:59;;;;;;;11.35;6.43;;;6.50;99.90;;;;;;4946727;29;20283;-69
2022/01/22 09:16:27;;;;;;;11.82;6.63;;;6.50;99.90;;;;;;4954874;28;20205;-69
2022/01/22 09:18:54;;;;;;;13.43;7.43;;;6.50;99.90;;;;;;4954790;28;20205;-69
2022/01/22 09:21:21;;;;;;;13.50;6.82;;;6.60;99.90;;;;;;4943400;28;20337;-69
2022/01/22 09:23:48;;;;;;;13.00;7.68;;;6.60;99.90;;;;;;4936125;29;20206;-69
2022/01/22 09:26:15;;;;;;;17.67;6.65;;;6.60;99.90;;;;;;4940100;29;20197;-69
2022/01/22 09:28:43;;;;;;;14.40;6.22;;;6.60;99.90;;;;;;4953179;28;20201;-69
2022/01/22 09:31:11;;;;;;;17.85;7.45;;;6.60;99.90;;;;;;4952479;28;20225;-69
2022/01/22 09:33:39;;;;;;;19.85;7.15;;;6.60;99.90;;;;;;4955034;28;20209;-69
2022/01/22 09:36:06;;;;;;;16.10;6.95;;;6.60;99.90;;;;;;4952338;28;20209;-70
2022/01/22 09:38:33;;;;;;;17.55;8.38;;;6.60;99.90;;;;;;4936068;29;20589;-70
2022/01/22 09:41:00;;;;;;;16.58;7.63;;;6.60;99.90;;;;;;4935330;29;20316;-70
2022/01/22 09:43:27;;;;;;;14.40;6.70;;;6.60;99.90;;;;;;4939250;29;20206;-70
2022/01/22 09:45:55;;;;;;;13.50;7.38;;;6.70;99.90;;;;;;4941555;29;20262;-70
2022/01/22 09:48:22;;;;;;;12.90;7.10;;;6.70;99.90;;;;;;4935484;29;20807;-70
2022/01/22 09:50:48;;;;;;;13.90;6.85;;;6.70;99.90;;;;;;4944985;28;20594;-70
2022/01/22 09:53:15;;;;;;;13.25;7.25;;;6.80;99.90;;;;;;4954592;28;20209;-70
2022/01/22 09:55:42;;;;;;;15.77;6.15;;;6.80;99.90;;;;;;4945625;28;20590;-70
2022/01/22 09:58:09;;;;;;;13.20;6.95;;;6.80;99.90;;;;;;4935150;29;20679;-70
2022/01/22 10:00:36;;;;;;;8.23;6.22;;;6.80;99.90;;;;;;4943316;29;20315;-70
2022/01/22 10:03:16;;;;;;;10.57;7.23;;;6.80;99.90;;;;;;4934666;29;20875;-69
2022/01/22 10:05:43;;;;;;;7.90;6.18;;;6.80;99.90;;;;;;4936693;29;20453;-70
2022/01/22 10:08:25;;;;;;;13.45;8.02;;;6.80;99.90;;;;;;4935047;29;20700;-69
2022/01/22 10:10:54;;;;;;;12.60;7.07;;;6.80;99.90;;;;;;4933948;29;20601;-69
2022/01/22 10:13:38;;;;;;;10.73;7.43;;;6.80;99.90;;;;;;4931707;29;20656;-69
2022/01/22 10:16:16;;;;;;;14.18;7.40;;;6.80;99.90;;;;;;4937908;29;20225;-69
2022/01/22 10:18:44;;;;;;;11.00;7.47;;;6.80;99.90;;;;;;4954136;28;20272;-69
2022/01/22 10:21:14;;;;;;;17.63;7.15;;;6.80;99.90;;;;;;4953111;28;20225;-69
2022/01/22 10:23:41;;;;;;;13.52;6.95;;;6.80;99.90;;;;;;4953885;28;20682;-69
2022/01/22 10:26:12;;;;;;;23.60;14.57;;;6.80;99.90;;;;;;4950074;28;20297;-69
2022/01/22 10:28:44;;;;;;;8.80;6.28;;;6.80;99.90;;;;;;4934849;29;20238;-69
2022/01/22 10:31:19;;;;;;;12.43;6.10;;;6.80;99.90;;;;;;4944038;29;20260;-69
2022/01/22 10:34:04;;;;;;;11.55;6.80;;;6.80;99.90;;;;;;4954210;28;20209;-69
2022/01/22 10:36:31;;;;;;;12.80;6.55;;;6.80;99.90;;;;;;4944591;28;20602;-69
2022/01/22 10:38:58;;;;;;;9.52;7.22;;;6.80;99.90;;;;;;4941491;29;20271;-69
2022/01/22 10:41:34;;;;;;;11.10;7.05;;;6.80;99.90;;;;;;4937667;28;20322;-69
2022/01/22 10:44:01;;;;;;;12.43;7.10;;;6.80;99.90;;;;;;4941675;28;20212;-69
2022/01/22 10:46:43;;;;;;;13.35;7.75;;;6.80;99.90;;;;;;4933893;29;20764;-70
2022/01/22 10:49:13;;;;;;;25.15;8.70;;;6.80;99.90;;;;;;4935596;29;20209;-69
2022/01/22 10:51:49;;;;;;;13.27;7.00;;;6.80;99.90;;;;;;4930141;29;20232;-68
2022/01/22 10:54:17;;;;;;;13.65;8.60;;;6.80;99.90;;;;;;4938973;29;20256;-69
2022/01/22 10:56:45;;;;;;;16.50;9.05;;;6.90;99.90;;;;;;4933593;29;20206;-70
2022/01/22 10:59:13;;;;;;;14.23;9.55;;;6.90;99.90;;;;;;4934459;29;20206;-70
2022/01/22 11:01:50;;;;;;;17.73;8.98;;;6.90;99.90;;;;;;4934033;29;20260;-70
2022/01/22 11:04:20;;;;;;;20.02;9.35;;;6.90;99.90;;;;;;4935011;29;20213;-70
2022/01/22 11:06:56;;;;;;;16.83;8.50;;;6.90;99.90;;;;;;4934582;29;20210;-70
2022/01/22 11:09:24;;;;;;;17.33;9.35;;;7.00;99.90;;;;;;4942629;29;20673;-69
2022/01/22 11:11:51;;;;;;;18.98;9.43;;;7.00;99.90;;;;;;4937327;29;20220;-70
2022/01/22 11:14:19;;;;;;;19.15;9.88;;;7.10;99.90;;;;;;4931025;28;20240;-70
2022/01/22 11:16:48;;;;;;;21.83;9.25;;;7.10;99.90;;;;;;4934498;29;20284;-70
2022/01/22 11:19:18;;;;;;;16.90;8.52;;;7.10;99.90;;;;;;4933014;29;20206;-70
2022/01/22 11:21:48;;;;;;;16.10;8.52;;;7.20;99.90;;;;;;4928956;29;20236;-70
2022/01/22 11:24:17;;;;;;;15.15;8.73;;;7.20;99.90;;;;;;4933748;29;20750;-70
2022/01/22 11:26:46;;;;;;;17.73;8.45;;;7.30;99.90;;;;;;4933906;29;20206;-70
2022/01/22 11:29:17;;;;;;;17.05;8.90;;;7.30;99.90;;;;;;4933791;29;20210;-70
2022/01/22 11:31:46;;;;;;;14.77;9.13;;;7.30;99.90;;;;;;4942633;29;20249;-70
2022/01/22 11:34:13;;;;;;;16.38;9.60;;;7.40;99.90;;;;;;4934180;29;20209;-70
2022/01/22 11:36:47;;;;;;;15.60;8.25;;;7.40;99.90;;;;;;4915386;29;20230;-69
2022/01/22 11:39:20;;;;;;;10.27;7.88;;;7.40;99.90;;;;;;4934172;29;20213;-69
2022/01/22 11:41:56;;;;;;;13.30;7.78;;;7.50;99.90;;;;;;4925149;29;20235;-70
2022/01/22 11:44:32;;;;;;;14.43;7.47;;;7.40;99.90;;;;;;4944075;28;20205;-70
2022/01/22 11:47:14;;;;;;;13.40;7.10;;;7.50;99.90;;;;;;4936795;29;20272;-71
2022/01/22 11:49:42;;;;;;;15.07;7.88;;;7.40;99.90;;;;;;4937017;29;20213;-70
2022/01/22 11:52:28;;;;;;;10.05;7.90;;;7.50;99.90;;;;;;4944541;29;20287;-70
2022/01/22 11:54:59;;;;;;;13.15;8.10;;;7.50;99.90;;;;;;4952709;28;20317;-70
2022/01/22 11:57:27;;;;;;;11.07;6.93;;;7.60;99.90;;;;;;4939724;29;20327;-70
2022/01/22 12:00:30;;;;;;;9.15;7.50;;;7.60;99.90;;;;;;4930146;29;20289;-69
2022/01/22 12:03:23;;;;;;;15.05;10.20;;;7.60;99.90;;;;;;4941892;29;20661;-70
2022/01/22 12:06:09;;;;;;;16.98;8.52;;;7.60;99.90;;;;;;4939627;28;20210;-70
2022/01/22 12:09:13;;;;;;;10.38;8.48;;;7.50;99.90;;;;;;4941190;29;20205;-71
2022/01/22 12:14:54;;;;;;;13.20;7.70;;;7.50;99.90;;;;;;4913199;29;20213;-72
2022/01/22 12:18:00;;;;;;;14.45;7.22;;;7.50;99.90;;;;;;4937273;29;20249;-72
2022/01/22 12:23:49;;;;;;;8.15;5.95;;;7.50;99.90;;;;;;4927810;29;20202;-68
2022/01/22 12:26:41;;;;;;;10.57;6.75;;;7.50;99.90;;;;;;4936980;29;20202;-70
2022/01/22 12:29:36;;;;;;;9.80;6.45;;;7.50;99.90;;;;;;4932410;29;20209;-71
2022/01/22 12:32:15;;;;;;;11.55;7.35;;;7.50;99.90;;;;;;4930611;29;20231;-71
2022/01/22 12:34:57;;;;;;;6.45;5.07;;;7.50;99.90;;;;;;4941558;29;20686;-71
2022/01/22 12:37:25;;;;;;;6.43;5.40;;;7.50;99.90;;;;;;4928938;29;20745;-70
2022/01/22 12:39:54;;;;;;;7.18;6.47;;;7.50;99.90;;;;;;4926040;29;20293;-69
2022/01/22 12:42:31;;;;;;;7.05;5.53;;;7.50;99.90;;;;;;4937360;29;20681;-70
2022/01/22 12:44:59;;;;;;;7.82;6.30;;;7.50;99.90;;;;;;4949889;29;20280;-71
2022/01/22 12:47:27;;;;;;;8.32;5.97;;;7.50;99.90;;;;;;4935005;28;20205;-70
2022/01/22 12:50:03;;;;;;;5.43;4.82;;;7.50;99.90;;;;;;4934402;29;20214;-72
2022/01/22 12:52:30;;;;;;;5.28;4.78;;;7.50;99.90;;;;;;4934565;29;20253;-71
2022/01/22 12:54:59;;;;;;;5.75;5.20;;;7.50;99.90;;;;;;4934094;29;20281;-69
2022/01/22 12:57:29;;;;;;;7.28;5.70;;;7.50;99.90;;;;;;4942831;29;20209;-70
2022/01/22 13:00:04;;;;;;;7.82;6.70;;;7.50;99.90;;;;;;4936861;29;20214;-71
2022/01/22 13:02:40;;;;;;;4.22;3.83;;;7.50;99.90;;;;;;4927240;29;20245;-70
2022/01/22 13:05:08;;;;;;;4.07;3.88;;;7.50;99.90;;;;;;4923671;29;20253;-70
2022/01/22 13:07:38;;;;;;;4.32;3.95;;;7.50;99.90;;;;;;4933284;29;20654;-71
2022/01/22 13:10:08;;;;;;;5.30;4.65;;;7.50;99.90;;;;;;4924788;29;20211;-70
2022/01/22 13:12:38;;;;;;;6.35;4.63;;;7.50;99.90;;;;;;4932410;29;20233;-71
2022/01/22 13:15:10;;;;;;;4.20;4.00;;;7.50;99.90;;;;;;4926563;29;20241;-71
2022/01/22 13:17:37;;;;;;;3.47;3.28;;;7.50;99.90;;;;;;4932812;29;20214;-72
2022/01/22 13:20:06;;;;;;;3.55;3.35;;;7.50;99.90;;;;;;4931537;29;20639;-71
2022/01/22 13:22:33;;;;;;;3.97;3.65;;;7.40;99.90;;;;;;4933029;29;20285;-70
2022/01/22 13:25:07;;;;;;;3.63;3.40;;;7.40;99.90;;;;;;4932755;29;20573;-69
2022/01/22 13:27:35;;;;;;;3.45;3.33;;;7.50;99.90;;;;;;4933047;29;20209;-70
2022/01/22 13:30:03;;;;;;;3.00;2.80;;;7.40;99.90;;;;;;4931828;29;20210;-69
2022/01/22 13:32:48;;;;;;;3.80;3.42;;;7.40;99.90;;;;;;4932304;29;20245;-71
2022/01/22 13:35:29;;;;;;;2.95;2.80;;;7.40;99.90;;;;;;4932709;29;20225;-70
2022/01/22 13:49:03;;;;;;;4.97;3.85;;;7.50;99.90;;;;;;4926457;29;20571;-70
2022/01/22 13:51:31;;;;;;;3.38;2.63;;;7.50;99.90;;;;;;4934886;29;20237;-71
2022/01/22 13:53:59;;;;;;;2.85;2.70;;;7.50;99.90;;;;;;4922752;29;20210;-69
2022/01/22 13:56:47;;;;;;;2.58;2.22;;;7.50;99.90;;;;;;4935042;29;20258;-70
2022/01/22 13:59:17;;;;;;;3.00;2.80;;;7.40;99.90;;;;;;4934836;29;20562;-71
2022/01/22 14:01:52;;;;;;;2.47;2.20;;;7.40;99.90;;;;;;4934121;29;20233;-71
2022/01/22 14:04:19;;;;;;;3.55;3.35;;;7.40;99.90;;;;;;4937182;29;20213;-70
2022/01/22 14:06:47;;;;;;;2.80;2.65;;;7.40;99.90;;;;;;4936399;29;20222;-70
2022/01/22 14:09:18;;;;;;;3.05;2.85;;;7.40;99.90;;;;;;4931789;29;20599;-70
2022/01/22 14:12:09;;;;;;;3.22;3.03;;;7.40;99.90;;;;;;4943429;28;20229;-70
2022/01/22 14:15:06;;;;;;;5.45;2.95;;;7.40;99.90;;;;;;4936945;28;20206;-71
2022/01/22 14:17:42;;;;;;;2.72;2.63;;;7.40;99.90;;;;;;4935777;29;20202;-70
2022/01/22 14:20:11;;;;;;;2.50;2.40;;;7.30;99.90;;;;;;4936118;29;20300;-68
2022/01/22 14:23:03;;;;;;;3.38;3.13;;;7.30;99.90;;;;;;4935440;29;20233;-70
2022/01/22 14:25:31;;;;;;;4.25;3.92;;;7.30;99.90;;;;;;4933117;29;20198;-70
2022/01/22 14:28:00;;;;;;;3.53;3.33;;;7.30;99.90;;;;;;4933382;29;20677;-71
2022/01/22 14:30:40;;;;;;;3.42;2.65;;;7.30;99.90;;;;;;4933238;29;20606;-70
2022/01/22 14:33:08;;;;;;;1.80;1.73;;;7.30;99.90;;;;;;4924697;29;20210;-68
2022/01/22 14:35:36;;;;;;;2.15;2.00;;;7.30;99.90;;;;;;4936466;29;20289;-70
2022/01/22 14:38:47;;;;;;;2.20;2.10;;;7.30;99.90;;;;;;4930410;29;20576;-71
2022/01/22 14:44:22;;;;;;;3.53;3.35;;;7.20;99.90;;;;;;4911017;29;20260;-70
2022/01/22 14:46:54;;;;;;;2.40;2.30;;;7.30;99.90;;;;;;4922534;29;20214;-70
2022/01/22 14:49:33;;;;;;;3.20;3.00;;;7.20;99.90;;;;;;4933322;29;20230;-70
2022/01/22 14:52:00;;;;;;;3.88;3.40;;;7.20;99.90;;;;;;4930477;29;20229;-70
2022/01/22 14:54:29;;;;;;;4.35;3.25;;;7.20;99.90;;;;;;4930122;29;20213;-70
2022/01/22 14:56:56;;;;;;;4.13;3.83;;;7.20;99.90;;;;;;4925471;29;20253;-70
2022/01/22 14:59:22;;;;;;;4.80;3.90;;;7.20;99.90;;;;;;4940251;29;20260;-69
2022/01/22 15:01:50;;;;;;;2.70;2.60;;;7.20;99.90;;;;;;4930091;29;20344;-68
2022/01/22 15:04:17;;;;;;;3.22;2.90;;;7.20;99.90;;;;;;4929413;29;20229;-70
2022/01/22 15:06:46;;;;;;;2.80;2.60;;;7.20;99.90;;;;;;4930136;29;20687;-70
2022/01/22 15:09:13;;;;;;;2.70;2.53;;;7.20;99.90;;;;;;4930163;29;20209;-69
2022/01/22 15:11:40;;;;;;;2.10;2.10;;;7.20;99.90;;;;;;4928296;29;20230;-70
2022/01/22 15:14:07;;;;;;;2.60;2.45;;;7.10;99.90;;;;;;4928880;29;20270;-68
2022/01/22 15:16:45;;;;;;;2.30;2.30;;;7.10;99.90;;;;;;4938385;29;20275;-70
2022/01/22 15:19:18;;;;;;;2.08;1.98;;;7.10;99.90;;;;;;4939456;29;20368;-70
2022/01/22 15:21:47;;;;;;;4.13;3.75;;;7.10;99.90;;;;;;4935890;28;20229;-69
2022/01/22 15:24:14;;;;;;;2.65;2.55;;;7.00;99.90;;;;;;4936479;29;20209;-69
2022/01/22 15:26:41;;;;;;;5.07;3.15;;;7.00;99.90;;;;;;4938218;29;20206;-69
2022/01/22 15:29:10;;;;;;;2.55;2.45;;;7.00;99.90;;;;;;4946524;29;20293;-69
2022/01/22 15:31:50;;;;;;;2.72;2.53;;;7.00;99.90;;;;;;4947811;28;20229;-70
2022/01/22 15:34:38;;;;;;;2.58;2.40;;;6.90;99.90;;;;;;4929947;28;20203;-69
2022/01/22 15:37:08;;;;;;;2.90;2.20;;;6.90;99.90;;;;;;4935164;29;20282;-70
2022/01/22 15:39:35;;;;;;;1.75;1.73;;;6.80;99.90;;;;;;4935594;29;20691;-70
2022/01/22 15:42:06;;;;;;;2.28;2.17;;;6.80;99.90;;;;;;4933963;28;20301;-70
2022/01/22 15:44:34;;;;;;;2.35;2.15;;;6.80;99.90;;;;;;4939583;29;20645;-71
2022/01/22 15:47:01;;;;;;;2.33;2.30;;;6.80;99.90;;;;;;4952412;28;20622;-72
2022/01/22 15:49:32;;;;;;;2.58;2.47;;;6.80;99.90;;;;;;4941177;28;20205;-69
2022/01/22 15:52:01;;;;;;;3.70;3.50;;;6.80;99.90;;;;;;4933423;29;20320;-70
2022/01/22 15:54:28;;;;;;;3.17;2.88;;;6.80;99.90;;;;;;4934172;29;20237;-70
2022/01/22 15:56:55;;;;;;;2.85;2.17;;;6.80;99.90;;;;;;4926431;29;20266;-69
2022/01/22 15:59:23;;;;;;;1.80;1.70;;;6.80;99.90;;;;;;4940619;29;20217;-69
2022/01/22 16:01:51;;;;;;;2.75;2.35;;;6.80;99.90;;;;;;4932002;29;20237;-69
2022/01/22 16:04:18;;;;;;;2.28;2.17;;;6.80;99.90;;;;;;4930240;29;20202;-69
2022/01/22 16:07:02;;;;;;;3.30;3.00;;;6.80;99.90;;;;;;4924297;29;20209;-70
2022/01/22 16:09:33;;;;;;;2.67;2.53;;;6.80;99.90;;;;;;4933372;29;20216;-70
2022/01/22 16:12:14;;;;;;;3.00;2.80;;;6.80;99.90;;;;;;4933183;29;20309;-71
2022/01/22 16:14:56;;;;;;;2.72;2.53;;;6.70;99.90;;;;;;4930679;29;20679;-71
2022/01/22 16:17:40;;;;;;;4.05;3.72;;;6.80;99.90;;;;;;4932446;29;20233;-70
2022/01/22 16:20:09;;;;;;;5.95;5.25;;;6.80;99.90;;;;;;4945325;29;20580;-71
2022/01/22 16:22:40;;;;;;;8.48;6.68;;;6.70;99.90;;;;;;4933916;29;20654;-71
2022/01/22 16:25:09;;;;;;;4.50;4.10;;;6.70;99.90;;;;;;4924577;29;20215;-70
2022/01/22 16:27:36;;;;;;;8.95;5.65;;;6.80;99.90;;;;;;4934267;29;20759;-70
2022/01/22 16:30:03;;;;;;;6.25;5.65;;;6.70;99.90;;;;;;4932224;29;20217;-69
2022/01/22 16:32:30;;;;;;;4.30;3.60;;;6.70;99.90;;;;;;4932185;29;20225;-70
2022/01/22 16:34:58;;;;;;;3.90;3.55;;;6.70;99.90;;;;;;4933283;29;20648;-70
2022/01/22 16:37:25;;;;;;;2.85;2.65;;;6.70;99.90;;;;;;4933087;29;20226;-70
2022/01/22 16:39:55;;;;;;;3.47;2.17;;;6.70;99.90;;;;;;4932889;29;20214;-70
2022/01/22 16:42:23;;;;;;;2.35;2.25;;;6.70;99.90;;;;;;4925533;29;20234;-71
2022/01/22 16:45:06;;;;;;;2.40;2.20;;;6.70;99.90;;;;;;4932734;28;20559;-70
2022/01/22 16:55:42;;;;;;;6.68;5.82;;;6.70;99.90;;;;;;4934530;29;20205;-71
2022/01/22 16:58:10;;;;;;;6.45;5.95;;;6.70;99.90;;;;;;4935632;29;20226;-71
2022/01/22 17:00:43;;;;;;;8.15;7.35;;;6.70;99.90;;;;;;4934851;29;20249;-71
2022/01/22 17:03:15;;;;;;;5.50;5.00;;;6.70;99.90;;;;;;4940970;29;20212;-70
2022/01/22 17:05:42;;;;;;;8.55;3.78;;;6.60;99.90;;;;;;4936001;28;20306;-70
2022/01/22 17:08:27;;;;;;;6.00;5.60;;;6.60;99.90;;;;;;4935909;29;20668;-69
2022/01/22 17:11:09;;;;;;;5.40;4.90;;;6.60;99.90;;;;;;4934834;29;20237;-70
2022/01/22 17:16:20;;;;;;;7.05;6.45;;;6.60;99.90;;;;;;4934060;29;20236;-70
2022/01/22 17:18:47;;;;;;;6.03;5.43;;;6.60;99.90;;;;;;4934756;29;20285;-70
2022/01/22 17:21:14;;;;;;;3.58;3.47;;;6.60;99.90;;;;;;4934938;29;20736;-70
2022/01/22 17:23:41;;;;;;;4.07;3.88;;;6.60;99.90;;;;;;4935332;29;20281;-70
2022/01/22 17:26:09;;;;;;;3.25;3.10;;;6.60;99.90;;;;;;4938117;29;20206;-70
2022/01/22 17:28:36;;;;;;;8.77;4.38;;;6.60;99.90;;;;;;4938372;29;20748;-70
2022/01/22 17:31:02;;;;;;;5.43;5.10;;;6.60;99.90;;;;;;4936654;29;20233;-71
2022/01/22 17:33:29;;;;;;;12.77;11.75;;;6.60;99.90;;;;;;4933687;29;20269;-69
2022/01/22 17:35:56;;;;;;;5.32;4.90;;;6.60;99.90;;;;;;4938514;29;20214;-70
2022/01/22 17:38:22;;;;;;;4.40;4.10;;;6.60;99.90;;;;;;4925328;29;20222;-69
2022/01/22 17:41:00;;;;;;;3.63;3.42;;;6.60;99.90;;;;;;4934941;29;20222;-71
2022/01/22 17:43:31;;;;;;;4.32;4.13;;;6.60;99.90;;;;;;4927282;29;20302;-71
2022/01/22 17:45:58;;;;;;;5.40;2.83;;;6.50;99.90;;;;;;4934643;29;20202;-69
2022/01/22 17:48:24;;;;;;;3.90;3.60;;;6.60;99.90;;;;;;4935216;29;20206;-70
2022/01/22 17:50:51;;;;;;;3.80;3.60;;;6.50;99.90;;;;;;4934649;29;20233;-70
2022/01/22 17:53:18;;;;;;;5.00;4.60;;;6.50;99.90;;;;;;4934912;29;20217;-70
2022/01/22 17:55:45;;;;;;;4.35;3.95;;;6.50;99.90;;;;;;4933336;29;20214;-70
2022/01/22 17:58:12;;;;;;;3.65;3.45;;;6.50;99.90;;;;;;4935291;29;20225;-70
2022/01/22 18:00:40;;;;;;;3.63;3.42;;;6.50;99.90;;;;;;4934048;29;20650;-71
2022/01/22 18:03:07;;;;;;;5.40;5.10;;;6.50;99.90;;;;;;4927437;29;20198;-71
2022/01/22 18:05:33;;;;;;;6.57;5.85;;;6.50;99.90;;;;;;4932067;29;20210;-72
2022/01/22 18:08:00;;;;;;;7.30;6.50;;;6.50;99.90;;;;;;4914797;29;20269;-70
2022/01/22 18:10:28;;;;;;;4.63;4.38;;;6.50;99.90;;;;;;4932028;29;20265;-71
2022/01/22 18:12:54;;;;;;;6.53;5.68;;;6.50;99.90;;;;;;4934454;29;20241;-69
2022/01/22 18:15:21;;;;;;;8.82;6.05;;;6.50;99.90;;;;;;4933031;29;20202;-71
2022/01/22 18:17:49;;;;;;;10.30;7.47;;;6.50;99.90;;;;;;4933400;29;20281;-71
2022/01/22 18:20:16;;;;;;;4.57;4.32;;;6.50;99.90;;;;;;4923370;29;20523;-71
2022/01/22 18:22:43;;;;;;;4.97;3.60;;;6.50;99.90;;;;;;4938880;29;20205;-72
2022/01/22 18:25:10;;;;;;;7.88;4.50;;;6.50;99.90;;;;;;4933043;28;20254;-70
2022/01/22 18:27:37;;;;;;;3.50;3.33;;;6.50;99.90;;;;;;4935937;29;20209;-73
2022/01/22 18:30:05;;;;;;;4.55;4.15;;;6.50;99.90;;;;;;4946845;28;20221;-71
2022/01/22 18:32:32;;;;;;;4.82;4.50;;;6.50;99.90;;;;;;4933697;28;20226;-71
2022/01/22 18:35:00;;;;;;;5.13;3.95;;;6.50;99.90;;;;;;4928250;29;20212;-71
2022/01/22 18:37:28;;;;;;;4.50;4.20;;;6.50;99.90;;;;;;4931495;28;20222;-71
2022/01/22 18:39:57;;;;;;;4.90;4.55;;;6.50;99.90;;;;;;4939659;28;20232;-71
2022/01/22 18:42:25;;;;;;;3.95;3.55;;;6.50;99.90;;;;;;4929965;29;20255;-72
2022/01/22 18:44:54;;;;;;;3.28;3.08;;;6.50;99.90;;;;;;4931077;29;20202;-71
2022/01/22 18:47:21;;;;;;;4.70;3.20;;;6.50;99.90;;;;;;4931523;29;20293;-72
2022/01/22 18:49:47;;;;;;;5.38;3.03;;;6.50;99.90;;;;;;4913747;29;20262;-72
2022/01/22 18:52:16;;;;;;;5.05;4.07;;;6.50;99.90;;;;;;4920983;29;20234;-72